Airport View

Enter AWOS ICAO identifier for current METAR.

ex. KFNL

KRKS 261254Z AUTO 16004KT 10SM CLR 12/02 A3010 RMK AO2 SLP112 T01170022 TSNO

26 Jun 2019 13:03

Frequency: 118.375

Phone: 307-362-2541

Other Area AWOS: KFWZ - KLND - KFBR - KEMM

TAF KRKS 261136Z 2612/2712 16006KT P6SM SCT100 FM261600 20012G18KT P6SM SKC FM261800 22018G26KT P6SM SKC FM270300 21006KT P6SM SKC